Time;durP1;ratioP1;P1;durP2;ratioP2;P2;SDS_P1;SDS_P2;PMS_P1;PMS_P2;Temp;Humidity;BMP_temperature;BMP_pressure;BME280_temperature;BME280_humidity;BME280_pressure;Samples;Min_cycle;Max_cycle;Signal;HPM_P1;HPM_P2
2023/11/06 00:02:12;;;;;;;2.78;0.77;;;;;;;23.62;53.00;97137.38;7390228;19;20013;-84
2023/11/06 00:04:38;;;;;;;0.17;0.17;;;;;;;23.57;53.21;97134.94;7388201;19;20395;-83
2023/11/06 00:07:04;;;;;;;0.10;0.10;;;;;;;23.34;53.80;97136.63;7388116;19;20010;-83
2023/11/06 00:09:30;;;;;;;3.10;0.60;;;;;;;24.01;52.61;97138.00;7388188;19;20010;-84
2023/11/06 00:11:56;;;;;;;0.82;0.43;;;;;;;23.68;51.89;97134.84;7390146;19;20010;-83
2023/11/06 00:14:22;;;;;;;0.20;0.20;;;;;;;23.09;52.64;97135.91;7366444;19;20090;-84
2023/11/06 00:16:51;;;;;;;1.48;0.20;;;;;;;22.83;52.97;97134.47;7388359;19;20002;-83
2023/11/06 00:19:17;;;;;;;0.10;0.10;;;;;;;22.82;52.77;97144.38;7386902;19;20018;-84
2023/11/06 00:21:43;;;;;;;0.10;0.10;;;;;;;24.06;50.74;97139.69;7390010;19;20011;-83
2023/11/06 00:24:09;;;;;;;0.50;0.50;;;;;;;23.76;50.52;97143.78;7389880;19;20030;-84
2023/11/06 00:26:36;;;;;;;0.10;0.10;;;;;;;22.56;52.65;97152.13;7387725;19;20360;-83
2023/11/06 00:29:02;;;;;;;0.25;0.25;;;;;;;22.78;52.21;97149.81;7387771;19;20014;-84
2023/11/06 00:31:28;;;;;;;0.30;0.30;;;;;;;22.79;52.32;97151.28;7388300;19;20370;-83
2023/11/06 00:33:54;;;;;;;0.28;0.28;;;;;;;22.60;53.29;97147.44;7396231;19;20030;-84
2023/11/06 00:36:25;;;;;;;0.10;0.10;;;;;;;22.05;54.08;97150.53;7395668;19;20453;-84
2023/11/06 00:38:51;;;;;;;0.30;0.30;;;;;;;22.19;53.57;97154.97;7395364;19;20082;-83
2023/11/06 00:41:17;;;;;;;0.10;0.10;;;;;;;22.02;54.07;97163.88;7394112;19;20010;-84
2023/11/06 00:43:43;;;;;;;0.10;0.00;;;;;;;22.14;53.76;97158.91;7393777;19;20070;-83
2023/11/06 00:46:09;;;;;;;0.20;0.20;;;;;;;22.24;53.63;97159.50;7397146;19;20461;-83
2023/11/06 00:48:35;;;;;;;0.10;0.10;;;;;;;22.39;52.71;97167.44;7394221;19;20500;-83
2023/11/06 00:51:02;;;;;;;0.10;0.10;;;;;;;21.76;53.77;97165.88;7394076;19;20002;-83
2023/11/06 00:53:28;;;;;;;0.10;0.10;;;;;;;22.50;53.48;97166.69;7395566;19;20425;-84
2023/11/06 00:55:54;;;;;;;0.20;0.20;;;;;;;22.78;52.57;97166.84;7392674;19;20014;-83
2023/11/06 00:58:21;;;;;;;0.10;0.10;;;;;;;22.85;52.93;97177.19;7393711;19;20018;-83
2023/11/06 01:00:47;;;;;;;0.80;0.30;;;;;;;23.17;52.43;97164.75;7394531;19;20022;-84
2023/11/06 01:03:13;;;;;;;0.10;0.10;;;;;;;22.01;54.38;97173.72;7394044;19;20003;-82
2023/11/06 01:05:39;;;;;;;0.10;0.10;;;;;;;22.62;53.95;97178.00;7395403;19;19998;-83
2023/11/06 01:08:05;;;;;;;0.10;0.00;;;;;;;21.51;55.74;97184.81;7395733;19;20476;-83
2023/11/06 01:10:33;;;;;;;0.13;0.13;;;;;;;23.27;53.45;97177.41;7392462;19;20010;-83
2023/11/06 01:13:00;;;;;;;0.32;0.20;;;;;;;22.37;54.11;97181.53;7393590;19;20018;-84
2023/11/06 01:15:26;;;;;;;0.22;0.22;;;;;;;21.85;56.02;97181.28;7392913;19;20494;-83
2023/11/06 01:17:53;;;;;;;0.52;0.20;;;;;;;20.70;58.33;97185.41;7394403;19;20011;-84
2023/11/06 01:20:22;;;;;;;0.30;0.22;;;;;;;19.77;60.65;97186.22;7393080;19;20472;-84
2023/11/06 01:22:48;;;;;;;0.15;0.15;;;;;;;19.95;65.96;97188.19;7394425;19;20367;-84
2023/11/06 01:25:14;;;;;;;1.02;0.50;;;;;;;19.82;66.73;97190.78;7394385;19;20090;-83
2023/11/06 01:27:40;;;;;;;0.10;0.10;;;;;;;20.84;63.50;97186.31;7393579;19;20104;-84
2023/11/06 01:30:10;;;;;;;0.43;0.40;;;;;;;18.35;71.35;97200.06;7394880;19;20010;-84
2023/11/06 01:32:36;;;;;;;0.10;0.10;;;;;;;20.99;63.98;97188.69;7395172;19;20006;-84
2023/11/06 01:35:03;;;;;;;0.28;0.28;;;;;;;20.11;70.30;97194.19;7392834;19;20018;-84
2023/11/06 01:37:29;;;;;;;0.70;0.55;;;;;;;19.98;70.72;97191.91;7390601;19;20002;-84
2023/11/06 01:39:55;;;;;;;0.20;0.20;;;;;;;22.52;62.01;97203.66;7388253;19;20018;-86
2023/11/06 01:42:21;;;;;;;0.32;0.32;;;;;;;24.31;57.08;97209.19;7389011;19;20018;-84
2023/11/06 01:44:47;;;;;;;0.13;0.05;;;;;;;21.74;60.85;97208.22;7388472;19;20031;-83
2023/11/06 01:47:15;;;;;;;0.10;0.08;;;;;;;23.03;59.93;97204.47;7391476;19;20469;-83
2023/11/06 01:49:44;;;;;;;0.10;0.10;;;;;;;23.83;57.71;97210.97;7389313;19;20018;-84
2023/11/06 01:52:15;;;;;;;0.10;0.10;;;;;;;26.33;52.81;97203.09;7390025;19;20354;-83
2023/11/06 01:54:41;;;;;;;0.20;0.20;;;;;;;25.97;50.68;97207.16;7394406;19;20031;-84
2023/11/06 01:57:08;;;;;;;0.32;0.13;;;;;;;24.82;52.84;97202.53;7393973;19;20034;-83
2023/11/06 01:59:34;;;;;;;0.10;0.10;;;;;;;24.98;53.32;97202.59;7391410;19;20039;-83
2023/11/06 02:02:05;;;;;;;0.10;0.00;;;;;;;26.82;49.86;97215.16;7392970;19;20082;-83
2023/11/06 02:04:32;;;;;;;0.20;0.20;;;;;;;27.49;48.30;97218.56;7391777;19;20006;-83
2023/11/06 02:06:58;;;;;;;0.30;0.30;;;;;;;26.83;48.45;97222.34;7392430;19;20263;-83
2023/11/06 02:09:27;;;;;;;0.10;0.10;;;;;;;26.40;48.10;97227.63;7391770;19;20010;-84
2023/11/06 02:11:55;;;;;;;0.30;0.30;;;;;;;25.38;50.76;97238.69;7392405;19;20366;-84
2023/11/06 02:14:21;;;;;;;0.15;0.15;;;;;;;25.19;51.60;97233.50;7391334;19;20363;-84
2023/11/06 02:16:47;;;;;;;0.10;0.10;;;;;;;25.27;51.47;97241.72;7391840;19;20009;-84
2023/11/06 02:19:13;;;;;;;0.10;0.00;;;;;;;25.21;51.47;97236.44;7392074;19;20031;-83
2023/11/06 02:21:39;;;;;;;0.10;0.00;;;;;;;24.77;52.01;97251.38;7391702;19;20027;-83
2023/11/06 02:24:06;;;;;;;0.43;0.30;;;;;;;24.39;53.35;97253.00;7394163;19;20014;-83
2023/11/06 02:26:33;;;;;;;0.20;0.15;;;;;;;25.03;52.09;97246.25;7393721;19;20026;-86
2023/11/06 02:28:59;;;;;;;0.10;0.00;;;;;;;24.89;51.95;97251.22;7392720;19;20010;-85
2023/11/06 02:31:26;;;;;;;0.90;0.55;;;;;;;24.34;52.61;97264.81;7390671;19;20017;-85
2023/11/06 02:33:52;;;;;;;0.10;0.10;;;;;;;24.36;52.96;97267.75;7392223;19;20018;-85
2023/11/06 02:36:18;;;;;;;0.10;0.00;;;;;;;24.78;53.20;97272.78;7369823;19;20018;-85
2023/11/06 02:38:45;;;;;;;0.10;0.10;;;;;;;24.23;53.03;97271.34;7391171;19;20008;-85
2023/11/06 02:41:11;;;;;;;0.10;0.00;;;;;;;23.84;53.93;97266.47;7392329;19;20010;-85
2023/11/06 02:43:37;;;;;;;0.10;0.00;;;;;;;23.47;54.99;97265.84;7391257;19;22709;-85
2023/11/06 02:46:03;;;;;;;0.10;0.00;;;;;;;22.54;56.17;97268.31;7392034;19;20002;-85
2023/11/06 02:48:31;;;;;;;0.10;0.10;;;;;;;23.85;54.52;97273.59;7390763;19;20353;-85
2023/11/06 02:50:57;;;;;;;0.10;0.00;;;;;;;23.85;53.93;97273.59;7391555;19;20373;-84
2023/11/06 02:53:25;;;;;;;0.20;0.20;;;;;;;24.41;53.07;97277.97;7391892;19;20459;-85
2023/11/06 02:55:53;;;;;;;0.10;0.10;;;;;;;24.42;52.85;97276.59;7388424;19;20021;-85
2023/11/06 02:58:21;;;;;;;0.20;0.10;;;;;;;22.80;55.29;97288.97;7391458;19;20030;-85
2023/11/06 03:00:47;;;;;;;0.10;0.10;;;;;;;22.44;55.78;97288.31;7392539;19;20465;-85
2023/11/06 03:03:13;;;;;;;0.10;0.10;;;;;;;22.69;56.09;97289.75;7391226;19;20015;-85
2023/11/06 03:05:39;;;;;;;1.17;0.52;;;;;;;23.49;55.10;97294.38;7390396;19;20002;-85
2023/11/06 03:08:06;;;;;;;0.80;0.65;;;;;;;23.67;53.66;97298.19;7392001;19;20007;-85
2023/11/06 03:10:32;;;;;;;0.10;0.00;;;;;;;22.63;55.99;97305.06;7389959;19;20006;-85
2023/11/06 03:12:58;;;;;;;0.32;0.20;;;;;;;22.80;55.85;97303.91;7391781;19;20011;-84
2023/11/06 03:15:24;;;;;;;0.10;0.00;;;;;;;22.55;55.65;97310.22;7388734;19;20365;-85
2023/11/06 03:17:50;;;;;;;0.10;0.10;;;;;;;22.67;54.66;97306.66;7392469;19;20027;-85
2023/11/06 03:20:16;;;;;;;0.10;0.00;;;;;;;21.57;56.78;97309.84;7391439;19;20014;-85
2023/11/06 03:22:42;;;;;;;0.10;0.10;;;;;;;20.91;58.66;97312.66;7392108;19;20039;-84
2023/11/06 03:25:09;;;;;;;1.55;0.22;;;;;;;21.42;57.52;97307.47;7390520;19;20453;-84
2023/11/06 03:27:35;;;;;;;0.28;0.28;;;;;;;20.39;59.67;97312.75;7391234;19;20359;-85
2023/11/06 03:30:04;;;;;;;0.35;0.05;;;;;;;20.34;60.12;97319.47;7391111;19;20006;-85
2023/11/06 03:32:30;;;;;;;0.10;0.10;;;;;;;20.54;59.69;97314.44;7393316;19;20734;-85
2023/11/06 03:34:57;;;;;;;0.10;0.00;;;;;;;20.68;59.29;97320.31;7391624;19;20006;-84
2023/11/06 03:37:23;;;;;;;0.10;0.10;;;;;;;21.08;57.66;97320.16;7389335;19;20005;-84
2023/11/06 03:39:51;;;;;;;0.10;0.08;;;;;;;20.80;57.83;97326.75;7388474;19;20007;-85
2023/11/06 03:42:17;;;;;;;0.82;0.77;;;;;;;20.79;57.91;97334.50;7385648;19;20018;-85
2023/11/06 03:44:43;;;;;;;0.10;0.10;;;;;;;21.57;55.68;97326.84;7387761;19;20074;-84
2023/11/06 03:47:09;;;;;;;0.75;0.47;;;;;;;22.16;54.14;97337.63;7385549;19;20015;-84
2023/11/06 03:49:36;;;;;;;0.10;0.10;;;;;;;21.67;54.65;97339.53;7384139;19;20018;-84
2023/11/06 03:52:05;;;;;;;0.10;0.10;;;;;;;22.20;53.44;97337.88;7384794;19;20450;-84
2023/11/06 03:54:31;;;;;;;0.10;0.10;;;;;;;24.60;50.73;97340.88;7387387;19;20366;-84
2023/11/06 03:56:57;;;;;;;0.10;0.10;;;;;;;24.80;49.85;97339.09;7390289;19;20018;-84
2023/11/06 03:59:25;;;;;;;0.32;0.32;;;;;;;21.61;53.35;97346.91;7388612;19;20014;-85
2023/11/06 04:01:51;;;;;;;0.10;0.10;;;;;;;21.24;54.87;97349.50;7389951;19;20026;-84
2023/11/06 04:04:17;;;;;;;0.10;0.10;;;;;;;21.14;55.29;97355.25;7389154;19;20354;-85
2023/11/06 04:06:43;;;;;;;0.10;0.10;;;;;;;20.88;55.91;97352.75;7387597;19;20030;-84
2023/11/06 04:09:09;;;;;;;0.10;0.10;;;;;;;20.70;56.32;97349.47;7388644;19;20018;-85
2023/11/06 04:11:37;;;;;;;0.10;0.10;;;;;;;21.34;55.10;97355.06;7388989;19;20339;-85
2023/11/06 04:14:04;;;;;;;0.10;0.10;;;;;;;21.14;55.06;97352.41;7387953;19;20070;-84
2023/11/06 04:16:30;;;;;;;0.10;0.10;;;;;;;20.29;57.82;97362.22;7388258;19;20027;-85
2023/11/06 04:18:56;;;;;;;0.10;0.10;;;;;;;19.22;60.08;97368.69;7389825;19;20010;-84
2023/11/06 04:21:22;;;;;;;0.10;0.10;;;;;;;20.30;58.46;97369.34;7389176;19;20338;-85
2023/11/06 04:23:48;;;;;;;0.10;0.10;;;;;;;19.64;59.65;97360.47;7390275;19;20022;-84
2023/11/06 04:26:14;;;;;;;0.10;0.10;;;;;;;20.79;56.70;97359.94;7389509;19;20011;-84
2023/11/06 04:28:40;;;;;;;0.10;0.10;;;;;;;20.13;58.26;97366.69;7387438;19;20074;-84
2023/11/06 04:31:08;;;;;;;0.10;0.10;;;;;;;19.28;60.65;97365.56;7388555;19;20011;-85
2023/11/06 04:33:34;;;;;;;0.10;0.00;;;;;;;21.94;55.50;97356.09;7390189;19;20715;-84
2023/11/06 04:36:00;;;;;;;0.10;0.10;;;;;;;21.33;55.38;97368.47;7388680;19;20023;-84
2023/11/06 04:38:26;;;;;;;0.10;0.10;;;;;;;21.89;54.19;97371.41;7387728;19;20034;-84
2023/11/06 04:40:52;;;;;;;0.30;0.30;;;;;;;20.13;56.31;97378.75;7388167;19;20462;-84
2023/11/06 04:43:18;;;;;;;0.10;0.10;;;;;;;19.85;57.63;97378.84;7386873;19;20018;-84
2023/11/06 04:45:44;;;;;;;0.13;0.13;;;;;;;19.39;58.40;97385.47;7387811;19;20014;-84
2023/11/06 04:48:10;;;;;;;0.10;0.10;;;;;;;19.62;58.60;97387.84;7387534;19;20062;-85
2023/11/06 04:50:36;;;;;;;0.10;0.10;;;;;;;19.76;57.91;97382.44;7387089;19;20082;-84
2023/11/06 04:53:03;;;;;;;0.22;0.22;;;;;;;19.98;57.19;97386.84;7391008;19;20026;-84
2023/11/06 04:55:29;;;;;;;0.63;0.28;;;;;;;19.39;58.69;97385.47;7385914;19;20010;-85
2023/11/06 04:57:55;;;;;;;0.10;0.10;;;;;;;19.22;59.03;97388.44;7388154;19;20018;-84
2023/11/06 05:00:21;;;;;;;0.10;0.10;;;;;;;19.31;59.09;97390.53;7387048;19;20360;-85
2023/11/06 05:02:48;;;;;;;0.10;0.10;;;;;;;19.51;59.06;97392.00;7388509;19;20014;-85
2023/11/06 05:05:14;;;;;;;0.15;0.15;;;;;;;19.97;57.41;97388.16;7388273;19;20010;-84
2023/11/06 05:07:41;;;;;;;0.10;0.10;;;;;;;22.44;52.96;97390.41;7389653;19;20011;-84
2023/11/06 05:10:08;;;;;;;0.10;0.10;;;;;;;22.90;50.48;97388.91;7386983;19;20018;-84
2023/11/06 05:12:36;;;;;;;0.15;0.15;;;;;;;21.66;52.37;97399.63;7387948;19;20408;-84
2023/11/06 05:15:03;;;;;;;0.20;0.20;;;;;;;23.53;48.79;97391.19;7388617;19;20011;-84
2023/11/06 05:17:29;;;;;;;0.10;0.10;;;;;;;21.57;51.50;97398.38;7385050;19;19999;-85
2023/11/06 05:19:56;;;;;;;0.25;0.25;;;;;;;20.34;53.34;97395.78;7393316;19;20455;-84
2023/11/06 05:22:22;;;;;;;0.10;0.10;;;;;;;20.33;53.67;97404.88;7393425;19;20017;-85
2023/11/06 05:24:48;;;;;;;0.10;0.10;;;;;;;19.99;53.90;97408.13;7395345;19;20601;-84
2023/11/06 05:27:14;;;;;;;0.15;0.15;;;;;;;19.37;55.35;97413.56;7393345;19;20026;-85
2023/11/06 05:29:42;;;;;;;0.10;0.10;;;;;;;19.51;55.59;97411.75;7391400;19;20009;-84
2023/11/06 05:32:08;;;;;;;0.20;0.20;;;;;;;19.86;55.28;97417.06;7395657;19;20010;-84
2023/11/06 05:34:34;;;;;;;0.10;0.10;;;;;;;19.74;56.06;97419.00;7394590;19;20021;-85
2023/11/06 05:37:00;;;;;;;0.25;0.25;;;;;;;19.29;57.59;97420.66;7394801;19;20058;-84
2023/11/06 05:39:27;;;;;;;0.20;0.20;;;;;;;18.85;58.80;97429.38;7394075;19;20011;-85
2023/11/06 05:41:53;;;;;;;0.20;0.20;;;;;;;18.83;59.26;97432.81;7394430;19;20452;-84
2023/11/06 05:44:19;;;;;;;0.10;0.10;;;;;;;19.35;58.50;97426.78;7394887;19;20014;-85
2023/11/06 05:46:45;;;;;;;0.20;0.20;;;;;;;19.32;59.49;97428.69;7394691;19;20499;-84
2023/11/06 05:49:12;;;;;;;0.20;0.20;;;;;;;23.19;52.32;97409.09;7392882;19;20012;-85
2023/11/06 05:51:38;;;;;;;0.32;0.20;;;;;;;22.01;52.94;97422.41;7393025;19;20457;-85
2023/11/06 05:54:06;;;;;;;0.10;0.10;;;;;;;22.43;52.38;97428.66;7395154;19;20029;-84
2023/11/06 05:56:33;;;;;;;0.10;0.10;;;;;;;21.46;54.21;97433.06;7392642;19;20040;-85
2023/11/06 05:59:00;;;;;;;0.10;0.10;;;;;;;21.40;54.21;97429.09;7393979;19;20003;-84
2023/11/06 06:01:27;;;;;;;0.10;0.10;;;;;;;21.94;53.54;97423.41;7391461;19;20014;-85
2023/11/06 06:03:53;;;;;;;0.10;0.10;;;;;;;22.44;52.94;97430.13;7391915;19;20423;-84
2023/11/06 06:06:20;;;;;;;0.32;0.20;;;;;;;21.72;53.73;97436.88;7391016;19;20067;-85
2023/11/06 06:08:47;;;;;;;1.65;0.57;;;;;;;21.68;54.24;97433.75;7392813;19;20366;-84
2023/11/06 06:11:13;;;;;;;0.25;0.25;;;;;;;21.00;55.79;97444.88;7391750;19;20006;-84
2023/11/06 06:13:39;;;;;;;0.25;0.20;;;;;;;20.07;58.10;97453.88;7391490;19;20002;-85
2023/11/06 06:16:05;;;;;;;13.20;0.65;;;;;;;21.29;56.87;97441.84;7392497;19;20006;-84
2023/11/06 06:18:31;;;;;;;1.10;0.80;;;;;;;20.70;58.30;97445.63;7390869;19;20006;-84
2023/11/06 06:20:57;;;;;;;0.10;0.00;;;;;;;20.48;59.43;97451.84;7392099;19;19998;-85
2023/11/06 06:23:24;;;;;;;0.10;0.10;;;;;;;19.49;62.58;97451.13;7395063;19;20011;-84
2023/11/06 06:25:50;;;;;;;0.10;0.00;;;;;;;20.40;61.64;97452.75;7391673;19;20010;-84
2023/11/06 06:28:16;;;;;;;0.10;0.10;;;;;;;19.99;63.18;97453.31;7391288;19;20478;-84
2023/11/06 06:30:42;;;;;;;0.10;0.10;;;;;;;19.68;65.17;97462.41;7390977;19;20045;-85
2023/11/06 06:33:08;;;;;;;0.10;0.00;;;;;;;19.73;64.71;97460.63;7392772;19;20022;-84
2023/11/06 06:35:34;;;;;;;0.10;0.10;;;;;;;19.46;66.07;97460.81;7390913;19;20055;-84
2023/11/06 06:38:01;;;;;;;0.10;0.00;;;;;;;18.61;70.76;97455.72;7392195;19;20019;-85
2023/11/06 06:40:27;;;;;;;0.10;0.10;;;;;;;19.05;71.21;97461.19;7393341;19;20022;-84
2023/11/06 06:42:53;;;;;;;0.10;0.00;;;;;;;19.15;71.61;97459.88;7392845;19;20401;-85
2023/11/06 06:45:19;;;;;;;0.10;0.10;;;;;;;20.26;67.40;97470.81;7390753;19;20015;-85
2023/11/06 06:47:45;;;;;;;0.10;0.03;;;;;;;19.69;68.80;97468.81;7392697;19;20031;-84
2023/11/06 06:50:11;;;;;;;0.10;0.10;;;;;;;20.11;66.36;97468.31;7410272;19;20011;-84
2023/11/06 06:52:38;;;;;;;0.10;0.10;;;;;;;19.81;68.43;97469.69;7410712;19;20045;-84
2023/11/06 06:55:05;;;;;;;0.10;0.10;;;;;;;17.98;77.34;97479.00;7403746;19;20032;-84
2023/11/06 06:57:31;;;;;;;0.20;0.20;;;;;;;18.35;74.41;97474.16;7395808;19;20023;-84
2023/11/06 06:59:57;;;;;;;0.60;0.60;;;;;;;19.21;69.66;97474.41;7402919;19;20022;-84
2023/11/06 07:02:23;;;;;;;0.20;0.20;;;;;;;19.04;69.45;97483.00;7407697;19;20006;-84
2023/11/06 07:04:49;;;;;;;0.10;0.10;;;;;;;18.48;71.53;97485.06;7412829;19;20006;-84
2023/11/06 07:07:16;;;;;;;0.10;0.10;;;;;;;18.99;68.80;97491.78;7409077;19;20034;-84
2023/11/06 07:09:42;;;;;;;0.20;0.20;;;;;;;18.57;71.41;97492.06;7391894;19;20691;-85
2023/11/06 07:12:08;;;;;;;0.10;0.03;;;;;;;18.98;69.37;97501.56;7393079;19;20013;-84
2023/11/06 07:14:34;;;;;;;0.10;0.00;;;;;;;19.09;69.42;97506.63;7392692;19;20003;-84
2023/11/06 07:17:04;;;;;;;0.30;0.30;;;;;;;18.77;70.20;97510.56;7391766;19;20011;-84
2023/11/06 07:19:31;;;;;;;0.20;0.20;;;;;;;18.35;72.30;97510.03;7393132;19;20030;-85
2023/11/06 07:21:58;;;;;;;0.10;0.10;;;;;;;19.12;68.70;97517.50;7392574;19;20002;-84
2023/11/06 07:24:26;;;;;;;0.10;0.10;;;;;;;18.95;69.44;97514.75;7391519;19;20007;-84
2023/11/06 07:26:54;;;;;;;0.10;0.00;;;;;;;17.79;73.13;97518.31;7391021;19;20022;-84
2023/11/06 07:29:20;;;;;;;0.10;0.10;;;;;;;17.98;73.05;97521.25;7392637;19;20687;-84
2023/11/06 07:31:46;;;;;;;0.30;0.30;;;;;;;18.76;68.43;97531.63;7392562;19;20085;-84
2023/11/06 07:34:12;;;;;;;0.10;0.10;;;;;;;18.38;68.33;97528.59;7391783;19;20018;-84
2023/11/06 07:36:38;;;;;;;0.10;0.10;;;;;;;19.98;65.27;97534.50;7389271;19;20064;-85
2023/11/06 07:39:05;;;;;;;0.10;0.10;;;;;;;21.45;58.71;97527.88;7390320;19;20524;-84
2023/11/06 07:41:31;;;;;;;0.10;0.10;;;;;;;21.78;56.87;97542.84;7390256;19;19998;-85
2023/11/06 07:43:57;;;;;;;0.10;0.10;;;;;;;20.88;58.32;97537.41;7389719;19;20027;-84
2023/11/06 07:46:23;;;;;;;0.10;0.10;;;;;;;22.72;54.54;97541.06;7388719;19;20010;-85
2023/11/06 07:48:49;;;;;;;0.10;0.00;;;;;;;23.46;51.82;97542.78;7390839;19;20362;-84
2023/11/06 07:51:15;;;;;;;0.10;0.10;;;;;;;22.63;52.19;97549.06;7390836;19;20019;-84
2023/11/06 07:53:41;;;;;;;0.15;0.10;;;;;;;22.88;51.68;97550.56;7393873;19;20007;-84
2023/11/06 07:56:13;;;;;;;0.10;0.10;;;;;;;22.63;51.20;97554.75;7389844;19;20013;-84
2023/11/06 07:58:41;;;;;;;0.20;0.20;;;;;;;19.27;58.34;97556.72;7389251;19;20337;-84
2023/11/06 08:01:08;;;;;;;0.13;0.13;;;;;;;18.82;61.69;97554.63;7390149;19;20038;-84
2023/11/06 08:03:34;;;;;;;0.10;0.10;;;;;;;19.04;62.77;97556.34;7388901;19;20496;-85
2023/11/06 08:06:00;;;;;;;1.20;0.45;;;;;;;22.52;53.54;97555.44;7390541;19;20038;-85
2023/11/06 08:08:26;;;;;;;0.10;0.10;;;;;;;21.88;54.97;97557.69;7388188;19;20017;-85
2023/11/06 08:10:52;;;;;;;0.20;0.20;;;;;;;20.76;54.98;97562.03;7390706;19;20015;-84
2023/11/06 08:13:18;;;;;;;0.10;0.10;;;;;;;18.51;61.58;97567.72;7388620;19;20007;-85
2023/11/06 08:15:44;;;;;;;0.20;0.20;;;;;;;18.72;62.44;97565.16;7388740;19;20397;-84
2023/11/06 08:18:11;;;;;;;0.10;0.10;;;;;;;18.44;63.44;97557.25;7388581;19;20370;-85
2023/11/06 08:20:37;;;;;;;0.10;0.10;;;;;;;17.81;66.79;97563.50;7388894;19;20026;-83
2023/11/06 08:23:03;;;;;;;0.10;0.10;;;;;;;17.92;68.46;97562.25;7390584;19;20021;-84
2023/11/06 08:25:31;;;;;;;0.10;0.10;;;;;;;18.27;67.57;97566.50;7388186;19;20755;-82
2023/11/06 08:27:57;;;;;;;1.92;0.20;;;;;;;18.59;67.39;97579.63;7387642;19;20014;-83
2023/11/06 08:30:23;;;;;;;0.10;0.10;;;;;;;18.99;67.38;97568.69;7388465;19;20019;-83
2023/11/06 08:32:50;;;;;;;0.10;0.10;;;;;;;18.78;68.91;97582.53;7389947;19;20006;-83
2023/11/06 08:35:16;;;;;;;0.10;0.10;;;;;;;18.71;69.57;97577.78;7388117;19;20017;-83
2023/11/06 08:37:42;;;;;;;0.10;0.10;;;;;;;18.88;71.07;97586.16;7388538;19;20014;-83
2023/11/06 08:40:08;;;;;;;0.10;0.10;;;;;;;20.80;62.57;97579.28;7389618;19;20010;-84
2023/11/06 08:42:37;;;;;;;0.30;0.20;;;;;;;22.61;59.75;97571.63;7387617;19;20768;-83
2023/11/06 08:45:04;;;;;;;0.10;0.00;;;;;;;20.26;64.50;97584.63;7389085;19;20018;-83
2023/11/06 08:47:30;;;;;;;0.30;0.13;;;;;;;19.76;66.46;97577.31;7388823;19;20355;-83
2023/11/06 08:49:57;;;;;;;0.30;0.30;;;;;;;19.79;67.26;97584.63;7392942;19;20011;-84
2023/11/06 08:52:23;;;;;;;0.10;0.10;;;;;;;19.72;68.32;97580.59;7389060;19;20006;-83
2023/11/06 08:54:49;;;;;;;1.85;1.75;;;;;;;20.28;65.36;97592.50;7392166;19;20006;-84
2023/11/06 08:57:16;;;;;;;0.10;0.10;;;;;;;19.97;67.17;97594.41;7395447;19;20030;-84
2023/11/06 08:59:45;;;;;;;1.00;0.77;;;;;;;20.52;66.54;97594.25;7392712;19;20010;-84
2023/11/06 09:02:11;;;;;;;0.57;0.52;;;;;;;19.73;69.52;97595.47;7394783;19;20095;-83
2023/11/06 09:04:40;;;;;;;1.25;0.68;;;;;;;20.29;68.36;97605.31;7394174;19;20022;-83
2023/11/06 09:07:07;;;;;;;7.72;0.95;;;;;;;20.47;67.35;97620.75;7395801;19;20003;-84
2023/11/06 09:09:34;;;;;;;0.20;0.20;;;;;;;20.08;68.25;97624.91;7394409;19;20115;-83
2023/11/06 09:12:01;;;;;;;0.10;0.10;;;;;;;20.27;68.50;97630.59;7395089;19;20043;-84
2023/11/06 09:14:27;;;;;;;0.10;0.00;;;;;;;20.68;67.51;97629.34;7394219;19;20010;-85
2023/11/06 09:16:53;;;;;;;0.10;0.10;;;;;;;20.22;69.58;97631.63;7394441;19;20010;-84
2023/11/06 09:19:19;;;;;;;0.57;0.57;;;;;;;21.53;66.12;97635.28;7392701;19;19998;-84
2023/11/06 09:21:45;;;;;;;0.10;0.05;;;;;;;21.23;67.52;97642.44;7394362;19;20006;-84
2023/11/06 09:24:11;;;;;;;0.10;0.10;;;;;;;21.30;67.27;97646.44;7395768;19;20003;-84
2023/11/06 09:26:38;;;;;;;0.10;0.10;;;;;;;22.75;63.37;97644.84;7393045;19;20393;-84
2023/11/06 09:29:06;;;;;;;0.10;0.00;;;;;;;24.34;58.40;97643.22;7395319;19;20022;-84
2023/11/06 09:31:32;;;;;;;0.20;0.20;;;;;;;25.37;56.31;97650.44;7392846;19;20034;-84
2023/11/06 09:34:01;;;;;;;0.10;0.05;;;;;;;25.84;55.95;97655.75;7393413;19;20019;-83
2023/11/06 09:36:27;;;;;;;0.10;0.10;;;;;;;25.68;54.21;97660.63;7393287;19;20542;-84
2023/11/06 09:38:55;;;;;;;2.63;0.50;;;;;;;25.07;55.39;97662.28;7393702;19;20018;-84
2023/11/06 09:41:22;;;;;;;0.85;0.55;;;;;;;23.14;58.20;97669.38;7394207;19;20011;-88
2023/11/06 09:43:48;;;;;;;0.10;0.10;;;;;;;21.86;61.63;97678.69;7393936;19;20003;-83
2023/11/06 09:46:15;;;;;;;2.42;0.65;;;;;;;21.85;62.36;97674.38;7394054;19;20023;-83
2023/11/06 09:48:41;;;;;;;1.00;0.20;;;;;;;23.49;59.25;97680.03;7393184;19;20002;-83
2023/11/06 09:51:15;;;;;;;0.10;0.10;;;;;;;22.90;60.28;97673.50;7393087;19;20005;-86
2023/11/06 09:53:45;;;;;;;0.77;0.43;;;;;;;22.35;60.23;97691.19;7393718;19;20361;-82
2023/11/06 09:56:11;;;;;;;0.45;0.35;;;;;;;22.80;59.94;97694.84;7393564;19;20074;-82
2023/11/06 09:58:38;;;;;;;0.10;0.00;;;;;;;23.54;58.92;97682.50;7392425;19;20039;-82
2023/11/06 10:01:07;;;;;;;0.17;0.17;;;;;;;23.46;58.64;97682.00;7393840;19;20009;-82
2023/11/06 10:03:36;;;;;;;0.73;0.73;;;;;;;24.10;57.61;97691.63;7393643;19;19998;-82
2023/11/06 10:06:04;;;;;;;3.38;0.70;;;;;;;24.87;54.78;97696.06;7392785;19;20014;-82
2023/11/06 10:08:31;;;;;;;1.05;0.20;;;;;;;24.37;55.26;97691.06;7393147;19;20500;-82
2023/11/06 10:11:02;;;;;;;0.10;0.00;;;;;;;24.90;54.26;97692.00;7391567;19;20007;-83
2023/11/06 10:13:28;;;;;;;0.63;0.63;;;;;;;22.16;60.21;97705.47;7391017;19;20002;-82
2023/11/06 10:15:55;;;;;;;0.30;0.28;;;;;;;21.54;62.16;97701.94;7391722;19;20021;-82
2023/11/06 10:18:25;;;;;;;0.17;0.17;;;;;;;21.46;62.87;97712.72;7391483;19;20007;-82
2023/11/06 10:20:53;;;;;;;1.52;0.75;;;;;;;22.29;61.36;97716.28;7393058;19;20040;-82
2023/11/06 10:23:32;;;;;;;0.52;0.35;;;;;;;23.05;59.19;97701.44;7393909;19;20018;-83
2023/11/06 10:26:15;;;;;;;0.85;0.57;;;;;;;21.81;60.79;97728.63;7393331;19;20007;-82
2023/11/06 10:28:41;;;;;;;8.35;1.17;;;;;;;21.00;65.29;97722.22;7390263;19;20513;-82
2023/11/06 10:31:08;;;;;;;1.02;0.35;;;;;;;19.89;69.73;97727.34;7390765;19;20007;-82
2023/11/06 10:33:34;;;;;;;1.10;0.55;;;;;;;20.38;69.71;97726.84;7392423;19;20569;-82
2023/11/06 10:36:00;;;;;;;1.77;0.82;;;;;;;20.56;70.66;97724.63;7392608;19;20015;-82
2023/11/06 10:38:33;;;;;;;0.57;0.57;;;;;;;20.63;69.87;97731.47;7392872;19;20010;-82
2023/11/06 10:41:13;;;;;;;7.32;1.27;;;;;;;21.50;67.01;97738.47;7390887;19;20013;-82
2023/11/06 10:43:41;;;;;;;0.10;0.10;;;;;;;21.31;68.03;97738.56;7391304;19;20484;-82
2023/11/06 10:46:10;;;;;;;0.20;0.20;;;;;;;20.38;70.96;97745.91;7390705;19;20002;-82
2023/11/06 10:48:40;;;;;;;0.15;0.15;;;;;;;20.11;73.25;97748.06;7391682;19;20026;-82
2023/11/06 10:51:10;;;;;;;0.32;0.30;;;;;;;20.32;72.65;97743.38;7392863;19;20040;-82
2023/11/06 10:53:37;;;;;;;0.10;0.00;;;;;;;20.73;70.57;97749.94;7391105;19;20006;-82
2023/11/06 10:56:04;;;;;;;0.20;0.20;;;;;;;20.51;70.92;97756.78;7390867;19;20010;-82
2023/11/06 10:58:32;;;;;;;0.75;0.60;;;;;;;20.70;69.60;97751.13;7391409;19;20022;-82
2023/11/06 11:00:58;;;;;;;2.72;1.13;;;;;;;20.87;68.86;97758.72;7389952;19;20370;-82
2023/11/06 11:03:24;;;;;;;1.58;0.95;;;;;;;20.59;69.49;97750.97;7391382;19;20494;-82
2023/11/06 11:05:54;;;;;;;0.55;0.40;;;;;;;20.40;71.48;97751.69;7391964;19;20014;-81
2023/11/06 11:08:24;;;;;;;0.10;0.00;;;;;;;21.06;70.08;97756.63;7387973;19;20025;-82
2023/11/06 11:10:53;;;;;;;1.50;0.75;;;;;;;21.26;70.42;97768.66;7388768;19;20014;-82
2023/11/06 11:13:19;;;;;;;0.50;0.50;;;;;;;20.32;73.70;97768.06;7389973;19;20066;-83
2023/11/06 11:15:45;;;;;;;2.58;0.82;;;;;;;22.29;71.26;97773.75;7390749;19;20393;-82
2023/11/06 11:18:13;;;;;;;0.20;0.10;;;;;;;23.45;65.49;97777.16;7388824;19;20007;-82
2023/11/06 11:20:59;;;;;;;0.25;0.15;;;;;;;23.47;64.67;97768.75;7389820;19;20010;-82
2023/11/06 11:23:42;;;;;;;0.90;0.30;;;;;;;23.88;63.48;97761.38;7391414;19;20007;-82
2023/11/06 11:26:09;;;;;;;0.65;0.65;;;;;;;23.95;61.39;97779.53;7390223;19;20002;-81
2023/11/06 11:28:55;;;;;;;0.55;0.55;;;;;;;23.23;63.32;97772.84;7389805;19;20007;-82
2023/11/06 11:31:44;;;;;;;0.15;0.15;;;;;;;20.97;69.72;97774.34;7390778;19;20457;-82
2023/11/06 11:34:29;;;;;;;1.45;0.30;;;;;;;20.52;77.75;97786.56;7386646;19;20038;-82